sensor_id;sensor_type;location;lat;lon;timestamp;pressure;altitude;pressure_sealevel;temperature;humidity
80726;BME280;70113;59.928;10.878;2023-08-12T00:00:30;99158.50;;;14.49;96.55
80726;BME280;70113;59.928;10.878;2023-08-12T00:03:16;99148.69;;;14.69;95.91
80726;BME280;70113;59.928;10.878;2023-08-12T00:05:42;99148.69;;;14.69;95.65
80726;BME280;70113;59.928;10.878;2023-08-12T00:08:08;99141.97;;;14.62;96.82
80726;BME280;70113;59.928;10.878;2023-08-12T00:10:34;99148.94;;;14.45;97.79
80726;BME280;70113;59.928;10.878;2023-08-12T00:13:00;99146.81;;;14.53;97.35
80726;BME280;70113;59.928;10.878;2023-08-12T00:15:25;99150.09;;;14.58;97.18
80726;BME280;70113;59.928;10.878;2023-08-12T00:17:52;99148.38;;;14.57;97.07
80726;BME280;70113;59.928;10.878;2023-08-12T00:20:17;99146.69;;;14.74;96.89
80726;BME280;70113;59.928;10.878;2023-08-12T00:22:43;99141.31;;;14.56;97.41
80726;BME280;70113;59.928;10.878;2023-08-12T00:25:09;99138.66;;;14.56;97.78
80726;BME280;70113;59.928;10.878;2023-08-12T00:27:36;99146.28;;;14.64;97.63
80726;BME280;70113;59.928;10.878;2023-08-12T00:30:04;99145.34;;;14.65;97.70
80726;BME280;70113;59.928;10.878;2023-08-12T00:32:30;99138.84;;;14.71;97.38
80726;BME280;70113;59.928;10.878;2023-08-12T00:34:55;99131.50;;;14.76;97.39
80726;BME280;70113;59.928;10.878;2023-08-12T00:37:21;99131.03;;;14.85;97.10
80726;BME280;70113;59.928;10.878;2023-08-12T00:39:47;99115.69;;;14.73;97.04
80726;BME280;70113;59.928;10.878;2023-08-12T00:42:13;99129.28;;;14.84;97.16
80726;BME280;70113;59.928;10.878;2023-08-12T00:44:38;99121.78;;;14.92;97.00
80726;BME280;70113;59.928;10.878;2023-08-12T00:47:04;99122.19;;;14.67;98.23
80726;BME280;70113;59.928;10.878;2023-08-12T00:49:31;99116.47;;;14.75;97.89
80726;BME280;70113;59.928;10.878;2023-08-12T00:51:58;99118.50;;;14.70;97.83
80726;BME280;70113;59.928;10.878;2023-08-12T00:54:24;99115.53;;;14.76;97.97
80726;BME280;70113;59.928;10.878;2023-08-12T00:56:52;99125.06;;;14.63;99.37
80726;BME280;70113;59.928;10.878;2023-08-12T00:59:19;99106.75;;;14.74;98.55
80726;BME280;70113;59.928;10.878;2023-08-12T01:01:45;99108.47;;;14.75;98.69
80726;BME280;70113;59.928;10.878;2023-08-12T01:04:12;99120.28;;;14.69;99.30
80726;BME280;70113;59.928;10.878;2023-08-12T01:06:38;99115.13;;;14.84;98.46
80726;BME280;70113;59.928;10.878;2023-08-12T01:09:05;99109.59;;;14.88;98.10
80726;BME280;70113;59.928;10.878;2023-08-12T01:12:01;99099.25;;;14.82;98.15
80726;BME280;70113;59.928;10.878;2023-08-12T01:14:37;99103.56;;;14.85;98.50
80726;BME280;70113;59.928;10.878;2023-08-12T01:17:06;99092.84;;;14.86;98.37
80726;BME280;70113;59.928;10.878;2023-08-12T01:19:38;99094.84;;;14.98;97.83
80726;BME280;70113;59.928;10.878;2023-08-12T01:22:08;99084.47;;;14.94;97.63
80726;BME280;70113;59.928;10.878;2023-08-12T01:24:44;99077.41;;;14.93;97.68
80726;BME280;70113;59.928;10.878;2023-08-12T01:27:12;99071.69;;;15.00;97.92
80726;BME280;70113;59.928;10.878;2023-08-12T01:29:39;99063.88;;;14.97;97.61
80726;BME280;70113;59.928;10.878;2023-08-12T01:32:32;99057.25;;;15.04;96.79
80726;BME280;70113;59.928;10.878;2023-08-12T01:37:44;99056.22;;;14.91;96.99
80726;BME280;70113;59.928;10.878;2023-08-12T01:40:11;99057.59;;;14.98;97.91
80726;BME280;70113;59.928;10.878;2023-08-12T01:42:39;99063.78;;;14.99;97.89
80726;BME280;70113;59.928;10.878;2023-08-12T01:45:05;99054.34;;;14.93;97.98
80726;BME280;70113;59.928;10.878;2023-08-12T01:47:31;99051.38;;;14.82;99.63
80726;BME280;70113;59.928;10.878;2023-08-12T01:49:58;99037.81;;;14.87;98.96
80726;BME280;70113;59.928;10.878;2023-08-12T01:52:24;99036.41;;;14.97;97.65
80726;BME280;70113;59.928;10.878;2023-08-12T01:54:50;99041.03;;;14.93;97.46
80726;BME280;70113;59.928;10.878;2023-08-12T01:57:16;99053.06;;;14.83;98.42
80726;BME280;70113;59.928;10.878;2023-08-12T01:59:42;99041.97;;;14.75;98.67
80726;BME280;70113;59.928;10.878;2023-08-12T02:02:09;99045.72;;;14.88;97.80
80726;BME280;70113;59.928;10.878;2023-08-12T02:04:37;99038.66;;;14.87;97.22
80726;BME280;70113;59.928;10.878;2023-08-12T02:07:03;99042.81;;;14.93;97.24
80726;BME280;70113;59.928;10.878;2023-08-12T02:09:29;99024.25;;;14.91;97.31
80726;BME280;70113;59.928;10.878;2023-08-12T02:11:56;99041.94;;;14.92;97.39
80726;BME280;70113;59.928;10.878;2023-08-12T02:14:22;99027.00;;;14.90;97.48
80726;BME280;70113;59.928;10.878;2023-08-12T02:16:48;99025.81;;;14.95;97.43
80726;BME280;70113;59.928;10.878;2023-08-12T02:19:13;99012.38;;;14.81;97.38
80726;BME280;70113;59.928;10.878;2023-08-12T02:21:40;99025.34;;;14.87;98.22
80726;BME280;70113;59.928;10.878;2023-08-12T02:24:07;99018.25;;;14.88;97.73
80726;BME280;70113;59.928;10.878;2023-08-12T02:26:33;99016.59;;;14.85;98.41
80726;BME280;70113;59.928;10.878;2023-08-12T02:28:58;98998.47;;;14.76;98.57
80726;BME280;70113;59.928;10.878;2023-08-12T02:31:24;99005.34;;;14.80;99.03
80726;BME280;70113;59.928;10.878;2023-08-12T02:33:50;99012.47;;;14.79;99.03
80726;BME280;70113;59.928;10.878;2023-08-12T02:36:16;99017.94;;;14.94;98.77
80726;BME280;70113;59.928;10.878;2023-08-12T02:38:42;99000.13;;;14.78;99.34
80726;BME280;70113;59.928;10.878;2023-08-12T02:41:07;99007.94;;;14.81;100.00
80726;BME280;70113;59.928;10.878;2023-08-12T02:43:33;99011.75;;;14.93;100.00
80726;BME280;70113;59.928;10.878;2023-08-12T02:45:59;99001.41;;;14.87;100.00
80726;BME280;70113;59.928;10.878;2023-08-12T02:48:24;98994.34;;;14.53;100.00
80726;BME280;70113;59.928;10.878;2023-08-12T02:50:50;99008.13;;;14.42;100.00
80726;BME280;70113;59.928;10.878;2023-08-12T02:53:16;98995.88;;;14.40;100.00
80726;BME280;70113;59.928;10.878;2023-08-12T02:55:42;98995.63;;;14.44;100.00
80726;BME280;70113;59.928;10.878;2023-08-12T02:58:07;98993.94;;;14.43;100.00
80726;BME280;70113;59.928;10.878;2023-08-12T03:00:33;98997.28;;;14.47;100.00
80726;BME280;70113;59.928;10.878;2023-08-12T03:02:58;98981.25;;;14.31;100.00
80726;BME280;70113;59.928;10.878;2023-08-12T03:05:24;98965.91;;;14.19;100.00
80726;BME280;70113;59.928;10.878;2023-08-12T03:07:50;98978.97;;;14.41;100.00
80726;BME280;70113;59.928;10.878;2023-08-12T03:10:17;98992.22;;;14.59;100.00
80726;BME280;70113;59.928;10.878;2023-08-12T03:12:43;98989.06;;;14.51;100.00
80726;BME280;70113;59.928;10.878;2023-08-12T03:15:10;98990.56;;;14.57;100.00
80726;BME280;70113;59.928;10.878;2023-08-12T03:17:35;98988.13;;;14.35;100.00
80726;BME280;70113;59.928;10.878;2023-08-12T03:20:01;98995.09;;;14.20;100.00
80726;BME280;70113;59.928;10.878;2023-08-12T03:22:30;98985.16;;;14.24;100.00
80726;BME280;70113;59.928;10.878;2023-08-12T03:24:56;98992.47;;;14.19;100.00
80726;BME280;70113;59.928;10.878;2023-08-12T03:27:21;98985.25;;;14.22;100.00
80726;BME280;70113;59.928;10.878;2023-08-12T03:29:47;98966.06;;;14.33;100.00
80726;BME280;70113;59.928;10.878;2023-08-12T03:32:13;98967.16;;;14.46;100.00
80726;BME280;70113;59.928;10.878;2023-08-12T03:34:39;98978.38;;;14.53;100.00
80726;BME280;70113;59.928;10.878;2023-08-12T03:37:05;98982.84;;;14.52;100.00
80726;BME280;70113;59.928;10.878;2023-08-12T03:39:30;98981.84;;;14.55;100.00
80726;BME280;70113;59.928;10.878;2023-08-12T03:41:56;98980.06;;;14.36;100.00
80726;BME280;70113;59.928;10.878;2023-08-12T03:44:22;98992.06;;;14.28;100.00
80726;BME280;70113;59.928;10.878;2023-08-12T03:46:47;98990.31;;;14.27;100.00
80726;BME280;70113;59.928;10.878;2023-08-12T03:49:13;98975.94;;;14.31;100.00
80726;BME280;70113;59.928;10.878;2023-08-12T03:51:39;98984.69;;;14.33;100.00
80726;BME280;70113;59.928;10.878;2023-08-12T03:54:05;98968.19;;;14.44;100.00
80726;BME280;70113;59.928;10.878;2023-08-12T03:56:30;98966.38;;;14.44;100.00
80726;BME280;70113;59.928;10.878;2023-08-12T03:58:56;98954.34;;;14.37;100.00
80726;BME280;70113;59.928;10.878;2023-08-12T04:01:22;98947.06;;;14.41;100.00
80726;BME280;70113;59.928;10.878;2023-08-12T04:03:47;98963.28;;;14.53;100.00
80726;BME280;70113;59.928;10.878;2023-08-12T04:06:13;98972.84;;;14.57;100.00
80726;BME280;70113;59.928;10.878;2023-08-12T04:08:39;98967.81;;;14.51;100.00
80726;BME280;70113;59.928;10.878;2023-08-12T04:11:05;98946.66;;;14.48;100.00
80726;BME280;70113;59.928;10.878;2023-08-12T04:13:30;98964.06;;;14.55;100.00
80726;BME280;70113;59.928;10.878;2023-08-12T04:15:56;98958.66;;;14.57;100.00
80726;BME280;70113;59.928;10.878;2023-08-12T04:18:22;98954.50;;;14.51;100.00
80726;BME280;70113;59.928;10.878;2023-08-12T04:20:52;98980.03;;;14.55;100.00
80726;BME280;70113;59.928;10.878;2023-08-12T04:23:19;98975.34;;;14.61;100.00
80726;BME280;70113;59.928;10.878;2023-08-12T04:25:48;98978.75;;;14.63;100.00
80726;BME280;70113;59.928;10.878;2023-08-12T04:28:15;98971.63;;;14.63;100.00
80726;BME280;70113;59.928;10.878;2023-08-12T04:30:45;98968.03;;;14.64;100.00
80726;BME280;70113;59.928;10.878;2023-08-12T04:33:12;98965.88;;;14.55;100.00
80726;BME280;70113;59.928;10.878;2023-08-12T04:35:39;98967.50;;;14.57;100.00
80726;BME280;70113;59.928;10.878;2023-08-12T04:38:05;98969.06;;;14.62;100.00
80726;BME280;70113;59.928;10.878;2023-08-12T04:40:31;98955.22;;;14.55;100.00
80726;BME280;70113;59.928;10.878;2023-08-12T04:43:00;98942.13;;;14.50;100.00
80726;BME280;70113;59.928;10.878;2023-08-12T04:45:27;98954.34;;;14.54;100.00
80726;BME280;70113;59.928;10.878;2023-08-12T04:47:53;98950.66;;;14.57;100.00
80726;BME280;70113;59.928;10.878;2023-08-12T04:50:19;98956.00;;;14.57;100.00
80726;BME280;70113;59.928;10.878;2023-08-12T04:52:45;98939.34;;;14.53;100.00
80726;BME280;70113;59.928;10.878;2023-08-12T04:55:12;98958.41;;;14.62;100.00
80726;BME280;70113;59.928;10.878;2023-08-12T04:57:38;98961.88;;;14.64;100.00
80726;BME280;70113;59.928;10.878;2023-08-12T05:00:04;98953.09;;;14.62;100.00
80726;BME280;70113;59.928;10.878;2023-08-12T05:02:34;98956.72;;;14.61;100.00
80726;BME280;70113;59.928;10.878;2023-08-12T05:04:59;98945.91;;;14.64;100.00
80726;BME280;70113;59.928;10.878;2023-08-12T05:07:25;98952.94;;;14.65;100.00
80726;BME280;70113;59.928;10.878;2023-08-12T05:09:50;98926.25;;;14.49;100.00
80726;BME280;70113;59.928;10.878;2023-08-12T05:12:16;98942.28;;;14.65;100.00
80726;BME280;70113;59.928;10.878;2023-08-12T05:14:42;98945.03;;;14.63;100.00
80726;BME280;70113;59.928;10.878;2023-08-12T05:17:08;98940.66;;;14.62;100.00
80726;BME280;70113;59.928;10.878;2023-08-12T05:19:33;98936.13;;;14.64;100.00
80726;BME280;70113;59.928;10.878;2023-08-12T05:21:59;98931.66;;;14.65;100.00
80726;BME280;70113;59.928;10.878;2023-08-12T05:24:24;98943.84;;;14.69;100.00
80726;BME280;70113;59.928;10.878;2023-08-12T05:26:50;98926.50;;;14.62;100.00
80726;BME280;70113;59.928;10.878;2023-08-12T05:29:16;98929.22;;;14.60;100.00
80726;BME280;70113;59.928;10.878;2023-08-12T05:31:42;98938.63;;;14.67;100.00
80726;BME280;70113;59.928;10.878;2023-08-12T05:34:07;98928.03;;;14.66;100.00
80726;BME280;70113;59.928;10.878;2023-08-12T05:36:33;98937.94;;;14.64;100.00
80726;BME280;70113;59.928;10.878;2023-08-12T05:38:58;98934.13;;;14.52;100.00
80726;BME280;70113;59.928;10.878;2023-08-12T05:41:24;98927.28;;;14.46;100.00
80726;BME280;70113;59.928;10.878;2023-08-12T05:43:50;98923.31;;;14.55;100.00
80726;BME280;70113;59.928;10.878;2023-08-12T05:46:16;98927.00;;;14.52;100.00
80726;BME280;70113;59.928;10.878;2023-08-12T05:48:41;98929.56;;;14.54;100.00
80726;BME280;70113;59.928;10.878;2023-08-12T05:51:07;98932.78;;;14.61;100.00
80726;BME280;70113;59.928;10.878;2023-08-12T05:53:33;98931.34;;;14.53;100.00
80726;BME280;70113;59.928;10.878;2023-08-12T05:55:59;98940.75;;;14.61;100.00
80726;BME280;70113;59.928;10.878;2023-08-12T05:58:25;98940.97;;;14.56;100.00
80726;BME280;70113;59.928;10.878;2023-08-12T06:00:51;98942.13;;;14.50;100.00
80726;BME280;70113;59.928;10.878;2023-08-12T06:03:17;98938.38;;;14.54;100.00
80726;BME280;70113;59.928;10.878;2023-08-12T06:05:46;98935.88;;;14.51;100.00
80726;BME280;70113;59.928;10.878;2023-08-12T06:08:13;98941.03;;;14.54;100.00
80726;BME280;70113;59.928;10.878;2023-08-12T06:10:39;98937.13;;;14.62;100.00
80726;BME280;70113;59.928;10.878;2023-08-12T06:13:04;98936.19;;;14.63;100.00
80726;BME280;70113;59.928;10.878;2023-08-12T06:15:30;98931.66;;;14.47;100.00
80726;BME280;70113;59.928;10.878;2023-08-12T06:17:56;98937.75;;;14.49;100.00
80726;BME280;70113;59.928;10.878;2023-08-12T06:20:23;98933.47;;;14.47;100.00
80726;BME280;70113;59.928;10.878;2023-08-12T06:22:49;98943.94;;;14.50;100.00
80726;BME280;70113;59.928;10.878;2023-08-12T06:25:15;98933.00;;;14.39;100.00
80726;BME280;70113;59.928;10.878;2023-08-12T06:27:41;98931.28;;;14.38;100.00
80726;BME280;70113;59.928;10.878;2023-08-12T06:30:07;98936.00;;;14.48;100.00
80726;BME280;70113;59.928;10.878;2023-08-12T06:32:35;98947.41;;;14.52;100.00
80726;BME280;70113;59.928;10.878;2023-08-12T06:35:01;98945.91;;;14.46;100.00
80726;BME280;70113;59.928;10.878;2023-08-12T06:37:27;98936.00;;;14.48;100.00
80726;BME280;70113;59.928;10.878;2023-08-12T06:39:53;98949.03;;;14.54;100.00
80726;BME280;70113;59.928;10.878;2023-08-12T06:42:18;98935.88;;;14.51;100.00
80726;BME280;70113;59.928;10.878;2023-08-12T06:44:45;98911.81;;;14.37;100.00
80726;BME280;70113;59.928;10.878;2023-08-12T06:47:11;98933.28;;;14.50;100.00
80726;BME280;70113;59.928;10.878;2023-08-12T06:49:36;98944.16;;;14.63;100.00
80726;BME280;70113;59.928;10.878;2023-08-12T06:52:02;98933.63;;;14.61;100.00
80726;BME280;70113;59.928;10.878;2023-08-12T06:54:28;98944.78;;;14.68;100.00
80726;BME280;70113;59.928;10.878;2023-08-12T06:56:54;98943.69;;;14.72;100.00
80726;BME280;70113;59.928;10.878;2023-08-12T06:59:20;98946.97;;;14.77;100.00
80726;BME280;70113;59.928;10.878;2023-08-12T07:01:45;98933.03;;;14.72;100.00
80726;BME280;70113;59.928;10.878;2023-08-12T07:04:11;98939.16;;;14.74;100.00
80726;BME280;70113;59.928;10.878;2023-08-12T07:06:36;98942.59;;;14.76;100.00
80726;BME280;70113;59.928;10.878;2023-08-12T07:09:02;98935.53;;;14.75;100.00
80726;BME280;70113;59.928;10.878;2023-08-12T07:11:28;98941.47;;;14.80;100.00
80726;BME280;70113;59.928;10.878;2023-08-12T07:13:54;98935.38;;;14.78;100.00
80726;BME280;70113;59.928;10.878;2023-08-12T07:16:20;98940.34;;;14.84;100.00
80726;BME280;70113;59.928;10.878;2023-08-12T07:18:46;98946.47;;;14.86;100.00
80726;BME280;70113;59.928;10.878;2023-08-12T07:21:11;98948.03;;;14.90;100.00
80726;BME280;70113;59.928;10.878;2023-08-12T07:23:37;98935.75;;;14.88;100.00
80726;BME280;70113;59.928;10.878;2023-08-12T07:26:03;98928.53;;;14.90;100.00
80726;BME280;70113;59.928;10.878;2023-08-12T07:28:28;98941.50;;;14.96;100.00
80726;BME280;70113;59.928;10.878;2023-08-12T07:30:54;98933.91;;;15.06;100.00
80726;BME280;70113;59.928;10.878;2023-08-12T07:33:20;98934.59;;;15.09;100.00
80726;BME280;70113;59.928;10.878;2023-08-12T07:35:47;98945.75;;;15.16;100.00
80726;BME280;70113;59.928;10.878;2023-08-12T07:38:12;98929.59;;;15.03;100.00
80726;BME280;70113;59.928;10.878;2023-08-12T07:40:38;98948.34;;;15.17;100.00
80726;BME280;70113;59.928;10.878;2023-08-12T07:43:04;98941.03;;;15.21;100.00
80726;BME280;70113;59.928;10.878;2023-08-12T07:45:30;98942.06;;;15.18;100.00
80726;BME280;70113;59.928;10.878;2023-08-12T07:47:56;98936.56;;;15.06;100.00
80726;BME280;70113;59.928;10.878;2023-08-12T07:50:21;98942.91;;;15.19;100.00
80726;BME280;70113;59.928;10.878;2023-08-12T07:52:47;98955.53;;;15.31;100.00
80726;BME280;70113;59.928;10.878;2023-08-12T07:55:13;98948.16;;;15.36;100.00
80726;BME280;70113;59.928;10.878;2023-08-12T07:57:39;98946.28;;;15.38;100.00
80726;BME280;70113;59.928;10.878;2023-08-12T08:00:05;98945.41;;;15.54;100.00
80726;BME280;70113;59.928;10.878;2023-08-12T08:02:33;98944.22;;;15.59;100.00
80726;BME280;70113;59.928;10.878;2023-08-12T08:04:59;98949.28;;;15.64;100.00
80726;BME280;70113;59.928;10.878;2023-08-12T08:07:25;98954.03;;;15.59;100.00
80726;BME280;70113;59.928;10.878;2023-08-12T08:09:51;98953.84;;;15.78;100.00
80726;BME280;70113;59.928;10.878;2023-08-12T08:12:17;98948.94;;;15.70;100.00
80726;BME280;70113;59.928;10.878;2023-08-12T08:14:42;98957.13;;;15.83;100.00
80726;BME280;70113;59.928;10.878;2023-08-12T08:17:08;98952.81;;;15.80;100.00
80726;BME280;70113;59.928;10.878;2023-08-12T08:19:34;98955.16;;;15.70;100.00
80726;BME280;70113;59.928;10.878;2023-08-12T08:21:59;98955.16;;;15.70;100.00
80726;BME280;70113;59.928;10.878;2023-08-12T08:24:26;98962.38;;;15.68;100.00
80726;BME280;70113;59.928;10.878;2023-08-12T08:26:52;98954.44;;;15.67;100.00
80726;BME280;70113;59.928;10.878;2023-08-12T08:29:17;98959.19;;;15.62;100.00
80726;BME280;70113;59.928;10.878;2023-08-12T08:31:43;98961.22;;;15.57;100.00
80726;BME280;70113;59.928;10.878;2023-08-12T08:34:09;98962.75;;;15.61;100.00
80726;BME280;70113;59.928;10.878;2023-08-12T08:36:35;98953.13;;;15.58;100.00
80726;BME280;70113;59.928;10.878;2023-08-12T08:39:01;98946.09;;;15.73;100.00
80726;BME280;70113;59.928;10.878;2023-08-12T08:41:30;98952.66;;;15.83;100.00
80726;BME280;70113;59.928;10.878;2023-08-12T08:44:01;98949.81;;;15.86;100.00
80726;BME280;70113;59.928;10.878;2023-08-12T08:46:28;98958.84;;;16.14;100.00
80726;BME280;70113;59.928;10.878;2023-08-12T08:48:55;98974.00;;;16.13;100.00
80726;BME280;70113;59.928;10.878;2023-08-12T08:51:21;98972.94;;;15.70;100.00
80726;BME280;70113;59.928;10.878;2023-08-12T08:53:47;98972.84;;;15.71;100.00
80726;BME280;70113;59.928;10.878;2023-08-12T08:56:13;98975.69;;;15.68;100.00
80726;BME280;70113;59.928;10.878;2023-08-12T08:58:38;98960.09;;;15.61;100.00
80726;BME280;70113;59.928;10.878;2023-08-12T09:01:08;98972.69;;;15.75;100.00
80726;BME280;70113;59.928;10.878;2023-08-12T09:03:36;98978.56;;;15.64;100.00
80726;BME280;70113;59.928;10.878;2023-08-12T09:06:03;98973.34;;;15.62;100.00
80726;BME280;70113;59.928;10.878;2023-08-12T09:08:31;98975.84;;;15.65;100.00
80726;BME280;70113;59.928;10.878;2023-08-12T09:10:59;98977.34;;;15.71;100.00
80726;BME280;70113;59.928;10.878;2023-08-12T09:13:25;98970.41;;;15.67;100.00
80726;BME280;70113;59.928;10.878;2023-08-12T09:15:51;98973.59;;;15.58;100.00
80726;BME280;70113;59.928;10.878;2023-08-12T09:18:17;98967.84;;;15.65;100.00
80726;BME280;70113;59.928;10.878;2023-08-12T09:20:43;98966.28;;;15.61;100.00
80726;BME280;70113;59.928;10.878;2023-08-12T09:23:09;98977.66;;;15.65;100.00
80726;BME280;70113;59.928;10.878;2023-08-12T09:25:42;98978.50;;;15.65;100.00
80726;BME280;70113;59.928;10.878;2023-08-12T09:28:10;98968.09;;;15.61;100.00
80726;BME280;70113;59.928;10.878;2023-08-12T09:30:37;98972.22;;;15.66;100.00
80726;BME280;70113;59.928;10.878;2023-08-12T09:33:05;98975.41;;;15.73;100.00
80726;BME280;70113;59.928;10.878;2023-08-12T09:35:37;98976.56;;;15.69;100.00
80726;BME280;70113;59.928;10.878;2023-08-12T09:38:12;98976.94;;;15.61;100.00
80726;BME280;70113;59.928;10.878;2023-08-12T09:40:39;98984.88;;;15.63;100.00
80726;BME280;70113;59.928;10.878;2023-08-12T09:43:05;98979.44;;;15.64;100.00
80726;BME280;70113;59.928;10.878;2023-08-12T09:45:32;98978.56;;;15.64;100.00
80726;BME280;70113;59.928;10.878;2023-08-12T09:47:58;98986.63;;;15.80;100.00
80726;BME280;70113;59.928;10.878;2023-08-12T09:50:25;98977.16;;;15.74;100.00
80726;BME280;70113;59.928;10.878;2023-08-12T09:52:53;98977.50;;;15.84;100.00
80726;BME280;70113;59.928;10.878;2023-08-12T09:55:21;98982.28;;;15.93;100.00
80726;BME280;70113;59.928;10.878;2023-08-12T09:57:49;98987.44;;;15.96;100.00
80726;BME280;70113;59.928;10.878;2023-08-12T10:00:16;98970.00;;;15.90;100.00
80726;BME280;70113;59.928;10.878;2023-08-12T10:02:48;98971.94;;;16.03;100.00
80726;BME280;70113;59.928;10.878;2023-08-12T10:05:20;98982.41;;;16.22;100.00
80726;BME280;70113;59.928;10.878;2023-08-12T10:07:47;98989.69;;;16.34;100.00
80726;BME280;70113;59.928;10.878;2023-08-12T10:10:14;98987.09;;;16.32;100.00
80726;BME280;70113;59.928;10.878;2023-08-12T10:12:40;98988.66;;;16.36;100.00
80726;BME280;70113;59.928;10.878;2023-08-12T10:15:07;98982.91;;;16.28;100.00
80726;BME280;70113;59.928;10.878;2023-08-12T10:17:34;98984.53;;;16.31;100.00
80726;BME280;70113;59.928;10.878;2023-08-12T10:20:04;98969.13;;;16.36;100.00
80726;BME280;70113;59.928;10.878;2023-08-12T10:22:30;98991.06;;;16.55;100.00
80726;BME280;70113;59.928;10.878;2023-08-12T10:24:58;98986.88;;;16.66;100.00
80726;BME280;70113;59.928;10.878;2023-08-12T10:27:25;98977.31;;;16.77;100.00
80726;BME280;70113;59.928;10.878;2023-08-12T10:29:51;98975.16;;;16.68;100.00
80726;BME280;70113;59.928;10.878;2023-08-12T10:32:17;98984.63;;;16.74;100.00
80726;BME280;70113;59.928;10.878;2023-08-12T10:34:43;98978.28;;;16.76;100.00
80726;BME280;70113;59.928;10.878;2023-08-12T10:37:10;98985.81;;;16.84;100.00
80726;BME280;70113;59.928;10.878;2023-08-12T10:39:36;98990.88;;;16.89;100.00
80726;BME280;70113;59.928;10.878;2023-08-12T10:42:02;98978.19;;;16.92;100.00
80726;BME280;70113;59.928;10.878;2023-08-12T10:44:50;98985.47;;;17.04;100.00
80726;BME280;70113;59.928;10.878;2023-08-12T10:47:19;98989.25;;;17.15;100.00
80726;BME280;70113;59.928;10.878;2023-08-12T10:49:50;98990.59;;;17.07;100.00
80726;BME280;70113;59.928;10.878;2023-08-12T10:52:27;98979.81;;;17.09;100.00
80726;BME280;70113;59.928;10.878;2023-08-12T10:54:54;98961.88;;;17.11;100.00
80726;BME280;70113;59.928;10.878;2023-08-12T10:57:35;98967.50;;;17.21;100.00
80726;BME280;70113;59.928;10.878;2023-08-12T11:00:04;98979.81;;;17.38;100.00
80726;BME280;70113;59.928;10.878;2023-08-12T11:02:32;98976.84;;;17.28;100.00
80726;BME280;70113;59.928;10.878;2023-08-12T11:05:09;98975.38;;;17.37;100.00
80726;BME280;70113;59.928;10.878;2023-08-12T11:10:10;98981.13;;;17.45;100.00
80726;BME280;70113;59.928;10.878;2023-08-12T11:12:36;98956.81;;;17.35;100.00
80726;BME280;70113;59.928;10.878;2023-08-12T11:15:04;98970.16;;;17.49;100.00
80726;BME280;70113;59.928;10.878;2023-08-12T11:17:35;98973.50;;;17.39;100.00
80726;BME280;70113;59.928;10.878;2023-08-12T11:20:04;98978.34;;;17.46;100.00
80726;BME280;70113;59.928;10.878;2023-08-12T11:22:31;98971.00;;;17.50;100.00
80726;BME280;70113;59.928;10.878;2023-08-12T11:24:57;98978.81;;;17.53;100.00
80726;BME280;70113;59.928;10.878;2023-08-12T11:27:23;98980.72;;;17.37;100.00
80726;BME280;70113;59.928;10.878;2023-08-12T11:29:50;98984.84;;;17.42;100.00
80726;BME280;70113;59.928;10.878;2023-08-12T11:32:18;98977.22;;;17.36;100.00
80726;BME280;70113;59.928;10.878;2023-08-12T11:34:44;98985.53;;;17.17;100.00
80726;BME280;70113;59.928;10.878;2023-08-12T11:37:09;99002.16;;;17.22;100.00
80726;BME280;70113;59.928;10.878;2023-08-12T11:39:35;98999.94;;;17.29;100.00
80726;BME280;70113;59.928;10.878;2023-08-12T11:42:01;98994.22;;;17.21;100.00
80726;BME280;70113;59.928;10.878;2023-08-12T11:44:27;98998.13;;;17.44;100.00
80726;BME280;70113;59.928;10.878;2023-08-12T11:46:52;98998.13;;;17.44;100.00
80726;BME280;70113;59.928;10.878;2023-08-12T11:49:18;98993.50;;;17.46;100.00
80726;BME280;70113;59.928;10.878;2023-08-12T11:51:44;98991.38;;;17.65;100.00
80726;BME280;70113;59.928;10.878;2023-08-12T11:54:12;98988.97;;;17.89;100.00
80726;BME280;70113;59.928;10.878;2023-08-12T11:56:38;98991.22;;;17.95;100.00
80726;BME280;70113;59.928;10.878;2023-08-12T11:59:05;98984.84;;;17.98;100.00
80726;BME280;70113;59.928;10.878;2023-08-12T12:01:31;98976.13;;;18.21;100.00
80726;BME280;70113;59.928;10.878;2023-08-12T12:03:59;98978.59;;;18.25;100.00
80726;BME280;70113;59.928;10.878;2023-08-12T12:06:33;98989.66;;;18.33;100.00
80726;BME280;70113;59.928;10.878;2023-08-12T12:09:05;98987.50;;;18.38;95.03
80726;BME280;70113;59.928;10.878;2023-08-12T12:11:32;98987.50;;;18.38;96.10
80726;BME280;70113;59.928;10.878;2023-08-12T12:14:03;98991.84;;;18.53;93.89
80726;BME280;70113;59.928;10.878;2023-08-12T12:17:00;98979.75;;;18.60;91.97
80726;BME280;70113;59.928;10.878;2023-08-12T12:19:32;98958.03;;;18.65;93.57
80726;BME280;70113;59.928;10.878;2023-08-12T12:22:02;98970.25;;;18.82;90.91
80726;BME280;70113;59.928;10.878;2023-08-12T12:24:29;98968.97;;;18.87;90.08
80726;BME280;70113;59.928;10.878;2023-08-12T12:26:56;98969.28;;;18.96;89.05
80726;BME280;70113;59.928;10.878;2023-08-12T12:29:22;98968.31;;;18.97;87.83
80726;BME280;70113;59.928;10.878;2023-08-12T12:31:48;98948.72;;;18.83;89.38
80726;BME280;70113;59.928;10.878;2023-08-12T12:34:14;98977.31;;;19.08;86.70
80726;BME280;70113;59.928;10.878;2023-08-12T12:36:40;98975.81;;;19.04;87.03
80726;BME280;70113;59.928;10.878;2023-08-12T12:39:07;98970.06;;;18.98;86.12
80726;BME280;70113;59.928;10.878;2023-08-12T12:41:33;98972.19;;;18.93;86.01
80726;BME280;70113;59.928;10.878;2023-08-12T12:44:00;98955.06;;;18.95;86.86
80726;BME280;70113;59.928;10.878;2023-08-12T12:46:27;98975.72;;;19.19;85.72